sensor_id;sensor_type;location;lat;lon;timestamp;temperature;humidity
2633;DHT22;1326;48.692;16.870;2022-07-01T00:00:52;23.40;99.90
2633;DHT22;1326;48.692;16.870;2022-07-01T00:03:20;23.30;99.90
2633;DHT22;1326;48.692;16.870;2022-07-01T00:05:47;23.30;99.90
2633;DHT22;1326;48.692;16.870;2022-07-01T00:08:15;23.20;99.90
2633;DHT22;1326;48.692;16.870;2022-07-01T00:10:42;23.20;99.90
2633;DHT22;1326;48.692;16.870;2022-07-01T00:13:10;23.20;99.90
2633;DHT22;1326;48.692;16.870;2022-07-01T00:15:38;23.20;99.90
2633;DHT22;1326;48.692;16.870;2022-07-01T00:18:05;23.20;99.90
2633;DHT22;1326;48.692;16.870;2022-07-01T00:20:33;23.20;99.90
2633;DHT22;1326;48.692;16.870;2022-07-01T00:23:00;23.20;99.90
2633;DHT22;1326;48.692;16.870;2022-07-01T00:25:28;23.30;99.90
2633;DHT22;1326;48.692;16.870;2022-07-01T00:27:55;23.30;99.90
2633;DHT22;1326;48.692;16.870;2022-07-01T00:30:23;23.30;99.90
2633;DHT22;1326;48.692;16.870;2022-07-01T00:32:51;23.40;99.90
2633;DHT22;1326;48.692;16.870;2022-07-01T00:35:19;23.30;99.90
2633;DHT22;1326;48.692;16.870;2022-07-01T00:37:47;23.30;99.90
2633;DHT22;1326;48.692;16.870;2022-07-01T00:40:14;23.30;99.90
2633;DHT22;1326;48.692;16.870;2022-07-01T00:42:42;23.20;99.90
2633;DHT22;1326;48.692;16.870;2022-07-01T00:45:11;23.10;99.90
2633;DHT22;1326;48.692;16.870;2022-07-01T00:47:40;23.00;99.90
2633;DHT22;1326;48.692;16.870;2022-07-01T00:50:11;23.00;99.90
2633;DHT22;1326;48.692;16.870;2022-07-01T00:52:40;23.00;99.90
2633;DHT22;1326;48.692;16.870;2022-07-01T00:55:10;22.90;99.90
2633;DHT22;1326;48.692;16.870;2022-07-01T00:57:40;22.80;99.90
2633;DHT22;1326;48.692;16.870;2022-07-01T01:00:13;22.80;99.90
2633;DHT22;1326;48.692;16.870;2022-07-01T01:02:42;22.80;99.90
2633;DHT22;1326;48.692;16.870;2022-07-01T01:05:09;22.70;99.90
2633;DHT22;1326;48.692;16.870;2022-07-01T01:07:37;22.60;99.90
2633;DHT22;1326;48.692;16.870;2022-07-01T01:10:05;22.60;99.90
2633;DHT22;1326;48.692;16.870;2022-07-01T01:12:33;22.60;99.90
2633;DHT22;1326;48.692;16.870;2022-07-01T01:15:01;22.60;99.90
2633;DHT22;1326;48.692;16.870;2022-07-01T01:17:28;22.60;99.90
2633;DHT22;1326;48.692;16.870;2022-07-01T01:19:56;22.50;99.90
2633;DHT22;1326;48.692;16.870;2022-07-01T01:22:24;22.40;99.90
2633;DHT22;1326;48.692;16.870;2022-07-01T01:24:51;22.50;99.90
2633;DHT22;1326;48.692;16.870;2022-07-01T01:27:19;22.50;99.90
2633;DHT22;1326;48.692;16.870;2022-07-01T01:29:46;22.50;99.90
2633;DHT22;1326;48.692;16.870;2022-07-01T01:32:14;22.60;99.90
2633;DHT22;1326;48.692;16.870;2022-07-01T01:34:42;22.60;99.90
2633;DHT22;1326;48.692;16.870;2022-07-01T01:37:09;22.60;99.90
2633;DHT22;1326;48.692;16.870;2022-07-01T01:39:37;22.60;99.90
2633;DHT22;1326;48.692;16.870;2022-07-01T01:42:05;22.60;99.90
2633;DHT22;1326;48.692;16.870;2022-07-01T01:44:33;22.60;99.90
2633;DHT22;1326;48.692;16.870;2022-07-01T01:47:01;22.70;99.90
2633;DHT22;1326;48.692;16.870;2022-07-01T01:49:28;22.70;99.90
2633;DHT22;1326;48.692;16.870;2022-07-01T01:51:58;22.70;99.90
2633;DHT22;1326;48.692;16.870;2022-07-01T01:54:26;22.40;99.90
2633;DHT22;1326;48.692;16.870;2022-07-01T01:56:54;22.10;99.90
2633;DHT22;1326;48.692;16.870;2022-07-01T01:59:22;21.80;99.90
2633;DHT22;1326;48.692;16.870;2022-07-01T02:01:49;21.70;99.90
2633;DHT22;1326;48.692;16.870;2022-07-01T02:04:17;21.60;99.90
2633;DHT22;1326;48.692;16.870;2022-07-01T02:06:45;21.50;99.90
2633;DHT22;1326;48.692;16.870;2022-07-01T02:09:12;21.50;99.90
2633;DHT22;1326;48.692;16.870;2022-07-01T02:11:40;21.60;99.90
2633;DHT22;1326;48.692;16.870;2022-07-01T02:14:08;21.70;99.90
2633;DHT22;1326;48.692;16.870;2022-07-01T02:16:35;21.70;99.90
2633;DHT22;1326;48.692;16.870;2022-07-01T02:19:03;21.70;99.90
2633;DHT22;1326;48.692;16.870;2022-07-01T02:21:31;21.80;99.90
2633;DHT22;1326;48.692;16.870;2022-07-01T02:23:58;21.90;99.90
2633;DHT22;1326;48.692;16.870;2022-07-01T02:26:26;21.90;99.90
2633;DHT22;1326;48.692;16.870;2022-07-01T02:28:53;22.00;99.90
2633;DHT22;1326;48.692;16.870;2022-07-01T02:31:21;22.00;99.90
2633;DHT22;1326;48.692;16.870;2022-07-01T02:33:48;21.90;99.90
2633;DHT22;1326;48.692;16.870;2022-07-01T02:36:16;21.80;99.90
2633;DHT22;1326;48.692;16.870;2022-07-01T02:38:44;21.70;99.90
2633;DHT22;1326;48.692;16.870;2022-07-01T02:41:11;21.70;99.90
2633;DHT22;1326;48.692;16.870;2022-07-01T02:43:39;21.60;99.90
2633;DHT22;1326;48.692;16.870;2022-07-01T02:46:06;21.50;99.90
2633;DHT22;1326;48.692;16.870;2022-07-01T02:48:34;21.30;99.90
2633;DHT22;1326;48.692;16.870;2022-07-01T02:51:01;21.30;99.90
2633;DHT22;1326;48.692;16.870;2022-07-01T02:53:29;21.20;99.90
2633;DHT22;1326;48.692;16.870;2022-07-01T02:55:56;21.20;99.90
2633;DHT22;1326;48.692;16.870;2022-07-01T02:58:25;21.30;99.90
2633;DHT22;1326;48.692;16.870;2022-07-01T03:00:53;21.30;99.90
2633;DHT22;1326;48.692;16.870;2022-07-01T03:03:20;21.40;99.90
2633;DHT22;1326;48.692;16.870;2022-07-01T03:05:48;21.40;99.90
2633;DHT22;1326;48.692;16.870;2022-07-01T03:08:15;21.50;99.90
2633;DHT22;1326;48.692;16.870;2022-07-01T03:10:43;21.50;99.90
2633;DHT22;1326;48.692;16.870;2022-07-01T03:13:11;21.50;99.90
2633;DHT22;1326;48.692;16.870;2022-07-01T03:15:39;21.40;99.90
2633;DHT22;1326;48.692;16.870;2022-07-01T03:18:07;21.40;99.90
2633;DHT22;1326;48.692;16.870;2022-07-01T03:20:34;21.30;99.90
2633;DHT22;1326;48.692;16.870;2022-07-01T03:23:02;21.10;99.90
2633;DHT22;1326;48.692;16.870;2022-07-01T03:25:29;21.10;99.90
2633;DHT22;1326;48.692;16.870;2022-07-01T03:27:57;21.20;99.90
2633;DHT22;1326;48.692;16.870;2022-07-01T03:30:24;21.30;99.90
2633;DHT22;1326;48.692;16.870;2022-07-01T03:32:52;21.40;99.90
2633;DHT22;1326;48.692;16.870;2022-07-01T03:35:19;21.40;99.90
2633;DHT22;1326;48.692;16.870;2022-07-01T03:38:03;21.50;99.90
2633;DHT22;1326;48.692;16.870;2022-07-01T03:40:31;21.60;99.90
2633;DHT22;1326;48.692;16.870;2022-07-01T03:42:59;21.70;99.90
2633;DHT22;1326;48.692;16.870;2022-07-01T03:45:27;21.80;99.90
2633;DHT22;1326;48.692;16.870;2022-07-01T03:47:55;21.90;99.90
2633;DHT22;1326;48.692;16.870;2022-07-01T03:50:24;22.00;99.90
2633;DHT22;1326;48.692;16.870;2022-07-01T03:52:52;22.00;99.90
2633;DHT22;1326;48.692;16.870;2022-07-01T03:55:21;22.10;99.90
2633;DHT22;1326;48.692;16.870;2022-07-01T03:57:49;22.10;99.90
2633;DHT22;1326;48.692;16.870;2022-07-01T04:00:16;22.00;99.90
2633;DHT22;1326;48.692;16.870;2022-07-01T04:02:45;22.00;99.90
2633;DHT22;1326;48.692;16.870;2022-07-01T04:05:12;21.80;99.90
2633;DHT22;1326;48.692;16.870;2022-07-01T04:07:40;21.60;99.90
2633;DHT22;1326;48.692;16.870;2022-07-01T04:10:08;21.60;99.90
2633;DHT22;1326;48.692;16.870;2022-07-01T04:12:36;21.60;99.90
2633;DHT22;1326;48.692;16.870;2022-07-01T04:15:04;21.60;99.90
2633;DHT22;1326;48.692;16.870;2022-07-01T04:17:32;21.60;99.90
2633;DHT22;1326;48.692;16.870;2022-07-01T04:19:59;21.70;99.90
2633;DHT22;1326;48.692;16.870;2022-07-01T04:22:27;21.90;99.90
2633;DHT22;1326;48.692;16.870;2022-07-01T04:25:03;22.00;99.90
2633;DHT22;1326;48.692;16.870;2022-07-01T04:27:31;22.10;99.90
2633;DHT22;1326;48.692;16.870;2022-07-01T04:29:59;22.30;99.90
2633;DHT22;1326;48.692;16.870;2022-07-01T04:32:29;22.40;99.90
2633;DHT22;1326;48.692;16.870;2022-07-01T04:34:57;22.50;99.90
2633;DHT22;1326;48.692;16.870;2022-07-01T04:37:25;22.60;99.90
2633;DHT22;1326;48.692;16.870;2022-07-01T04:39:52;22.70;99.90
2633;DHT22;1326;48.692;16.870;2022-07-01T04:42:20;22.80;99.90
2633;DHT22;1326;48.692;16.870;2022-07-01T04:44:48;22.90;99.90
2633;DHT22;1326;48.692;16.870;2022-07-01T04:47:16;23.00;99.90
2633;DHT22;1326;48.692;16.870;2022-07-01T04:49:43;23.00;99.90
2633;DHT22;1326;48.692;16.870;2022-07-01T04:52:11;23.10;99.90
2633;DHT22;1326;48.692;16.870;2022-07-01T04:54:38;23.10;99.90
2633;DHT22;1326;48.692;16.870;2022-07-01T04:57:06;23.10;99.90
2633;DHT22;1326;48.692;16.870;2022-07-01T04:59:33;23.20;99.90
2633;DHT22;1326;48.692;16.870;2022-07-01T05:02:03;23.20;99.90
2633;DHT22;1326;48.692;16.870;2022-07-01T05:04:31;23.30;99.90
2633;DHT22;1326;48.692;16.870;2022-07-01T05:06:58;23.30;99.90
2633;DHT22;1326;48.692;16.870;2022-07-01T05:09:26;23.50;99.90
2633;DHT22;1326;48.692;16.870;2022-07-01T05:11:53;23.50;99.90
2633;DHT22;1326;48.692;16.870;2022-07-01T05:14:21;23.70;99.90
2633;DHT22;1326;48.692;16.870;2022-07-01T05:16:48;23.70;99.90
2633;DHT22;1326;48.692;16.870;2022-07-01T05:19:16;23.80;99.90
2633;DHT22;1326;48.692;16.870;2022-07-01T05:22:01;23.90;99.90
2633;DHT22;1326;48.692;16.870;2022-07-01T05:24:31;24.00;99.90
2633;DHT22;1326;48.692;16.870;2022-07-01T05:27:00;24.10;99.90
2633;DHT22;1326;48.692;16.870;2022-07-01T05:29:28;24.10;99.90
2633;DHT22;1326;48.692;16.870;2022-07-01T05:31:56;24.30;99.90
2633;DHT22;1326;48.692;16.870;2022-07-01T05:34:24;24.40;99.90
2633;DHT22;1326;48.692;16.870;2022-07-01T05:36:51;24.50;99.90
2633;DHT22;1326;48.692;16.870;2022-07-01T05:39:19;24.50;99.90
2633;DHT22;1326;48.692;16.870;2022-07-01T05:41:46;24.70;99.90
2633;DHT22;1326;48.692;16.870;2022-07-01T05:44:14;24.70;99.90
2633;DHT22;1326;48.692;16.870;2022-07-01T05:46:41;24.80;99.90
2633;DHT22;1326;48.692;16.870;2022-07-01T05:49:09;24.90;99.90
2633;DHT22;1326;48.692;16.870;2022-07-01T05:51:37;25.00;99.90
2633;DHT22;1326;48.692;16.870;2022-07-01T05:54:04;25.10;99.90
2633;DHT22;1326;48.692;16.870;2022-07-01T05:56:32;25.10;99.90
2633;DHT22;1326;48.692;16.870;2022-07-01T05:59:00;25.20;99.90
2633;DHT22;1326;48.692;16.870;2022-07-01T06:01:27;25.30;99.90
2633;DHT22;1326;48.692;16.870;2022-07-01T06:03:56;25.30;99.90
2633;DHT22;1326;48.692;16.870;2022-07-01T06:06:24;25.30;99.90
2633;DHT22;1326;48.692;16.870;2022-07-01T06:08:51;25.40;99.90
2633;DHT22;1326;48.692;16.870;2022-07-01T06:11:19;25.40;99.90
2633;DHT22;1326;48.692;16.870;2022-07-01T06:13:46;25.50;99.90
2633;DHT22;1326;48.692;16.870;2022-07-01T06:16:14;25.50;99.90
2633;DHT22;1326;48.692;16.870;2022-07-01T06:18:41;25.40;99.90
2633;DHT22;1326;48.692;16.870;2022-07-01T06:21:09;25.40;99.90
2633;DHT22;1326;48.692;16.870;2022-07-01T06:23:36;25.50;99.90
2633;DHT22;1326;48.692;16.870;2022-07-01T06:26:04;25.50;99.90
2633;DHT22;1326;48.692;16.870;2022-07-01T06:28:32;25.60;99.90
2633;DHT22;1326;48.692;16.870;2022-07-01T06:30:59;25.60;99.90
2633;DHT22;1326;48.692;16.870;2022-07-01T06:33:27;25.70;99.90
2633;DHT22;1326;48.692;16.870;2022-07-01T06:35:57;25.80;99.90
2633;DHT22;1326;48.692;16.870;2022-07-01T06:38:25;26.00;99.90
2633;DHT22;1326;48.692;16.870;2022-07-01T06:40:52;26.10;99.90
2633;DHT22;1326;48.692;16.870;2022-07-01T06:43:38;26.20;99.90
2633;DHT22;1326;48.692;16.870;2022-07-01T06:46:06;26.20;99.90
2633;DHT22;1326;48.692;16.870;2022-07-01T06:48:34;26.30;99.90
2633;DHT22;1326;48.692;16.870;2022-07-01T06:51:03;26.30;99.90
2633;DHT22;1326;48.692;16.870;2022-07-01T06:53:30;26.30;99.90
2633;DHT22;1326;48.692;16.870;2022-07-01T06:55:58;26.40;99.90
2633;DHT22;1326;48.692;16.870;2022-07-01T06:58:25;26.40;99.90
2633;DHT22;1326;48.692;16.870;2022-07-01T07:00:53;26.50;99.90
2633;DHT22;1326;48.692;16.870;2022-07-01T07:03:21;26.70;99.90
2633;DHT22;1326;48.692;16.870;2022-07-01T07:05:48;26.70;99.90
2633;DHT22;1326;48.692;16.870;2022-07-01T07:08:16;26.80;99.90
2633;DHT22;1326;48.692;16.870;2022-07-01T07:10:44;26.80;99.90
2633;DHT22;1326;48.692;16.870;2022-07-01T07:13:11;26.80;99.90
2633;DHT22;1326;48.692;16.870;2022-07-01T07:15:39;26.80;99.90
2633;DHT22;1326;48.692;16.870;2022-07-01T07:18:08;26.80;99.90
2633;DHT22;1326;48.692;16.870;2022-07-01T07:20:36;26.90;99.90
2633;DHT22;1326;48.692;16.870;2022-07-01T07:23:04;26.90;99.90
2633;DHT22;1326;48.692;16.870;2022-07-01T07:25:31;27.00;99.90
2633;DHT22;1326;48.692;16.870;2022-07-01T07:27:59;27.00;99.90
2633;DHT22;1326;48.692;16.870;2022-07-01T07:30:27;27.00;99.90
2633;DHT22;1326;48.692;16.870;2022-07-01T07:32:54;26.90;99.90
2633;DHT22;1326;48.692;16.870;2022-07-01T07:35:22;26.90;99.90
2633;DHT22;1326;48.692;16.870;2022-07-01T07:37:50;27.00;99.90
2633;DHT22;1326;48.692;16.870;2022-07-01T07:40:17;27.10;99.90
2633;DHT22;1326;48.692;16.870;2022-07-01T07:42:46;27.10;99.90
2633;DHT22;1326;48.692;16.870;2022-07-01T07:45:15;27.10;99.90
2633;DHT22;1326;48.692;16.870;2022-07-01T07:47:47;27.20;99.90
2633;DHT22;1326;48.692;16.870;2022-07-01T07:50:16;27.20;99.90
2633;DHT22;1326;48.692;16.870;2022-07-01T07:52:43;27.20;99.90
2633;DHT22;1326;48.692;16.870;2022-07-01T07:55:11;27.30;99.90
2633;DHT22;1326;48.692;16.870;2022-07-01T07:57:40;27.40;99.90
2633;DHT22;1326;48.692;16.870;2022-07-01T08:00:09;27.50;99.90
2633;DHT22;1326;48.692;16.870;2022-07-01T08:02:39;27.50;99.90
2633;DHT22;1326;48.692;16.870;2022-07-01T08:05:08;27.60;99.90
2633;DHT22;1326;48.692;16.870;2022-07-01T08:07:37;27.60;99.90
2633;DHT22;1326;48.692;16.870;2022-07-01T08:10:06;27.60;99.90
2633;DHT22;1326;48.692;16.870;2022-07-01T08:12:34;27.60;99.90
2633;DHT22;1326;48.692;16.870;2022-07-01T08:15:03;27.60;99.90
2633;DHT22;1326;48.692;16.870;2022-07-01T08:17:30;27.60;99.90
2633;DHT22;1326;48.692;16.870;2022-07-01T08:19:58;27.60;99.90
2633;DHT22;1326;48.692;16.870;2022-07-01T08:22:26;27.70;99.90
2633;DHT22;1326;48.692;16.870;2022-07-01T08:24:53;27.80;99.90
2633;DHT22;1326;48.692;16.870;2022-07-01T08:27:21;27.90;99.90
2633;DHT22;1326;48.692;16.870;2022-07-01T08:29:49;27.90;99.90
2633;DHT22;1326;48.692;16.870;2022-07-01T08:32:17;28.00;99.90
2633;DHT22;1326;48.692;16.870;2022-07-01T08:34:45;28.10;99.90
2633;DHT22;1326;48.692;16.870;2022-07-01T08:37:13;28.30;99.90
2633;DHT22;1326;48.692;16.870;2022-07-01T08:39:41;28.20;99.90
2633;DHT22;1326;48.692;16.870;2022-07-01T08:42:08;28.30;99.90
2633;DHT22;1326;48.692;16.870;2022-07-01T08:44:36;28.30;99.90
2633;DHT22;1326;48.692;16.870;2022-07-01T08:47:04;28.30;99.90
2633;DHT22;1326;48.692;16.870;2022-07-01T08:49:32;28.40;99.90
2633;DHT22;1326;48.692;16.870;2022-07-01T08:51:59;28.40;99.90
2633;DHT22;1326;48.692;16.870;2022-07-01T08:54:27;28.40;99.90
2633;DHT22;1326;48.692;16.870;2022-07-01T08:56:55;28.40;99.90
2633;DHT22;1326;48.692;16.870;2022-07-01T08:59:25;28.50;99.90
2633;DHT22;1326;48.692;16.870;2022-07-01T09:02:01;28.70;99.90
2633;DHT22;1326;48.692;16.870;2022-07-01T09:04:30;28.70;99.90
2633;DHT22;1326;48.692;16.870;2022-07-01T09:07:03;28.80;99.90
2633;DHT22;1326;48.692;16.870;2022-07-01T09:09:33;28.90;99.60
2633;DHT22;1326;48.692;16.870;2022-07-01T09:12:02;29.10;98.20
2633;DHT22;1326;48.692;16.870;2022-07-01T09:14:31;29.20;98.40
2633;DHT22;1326;48.692;16.870;2022-07-01T09:17:04;29.30;97.40
2633;DHT22;1326;48.692;16.870;2022-07-01T09:19:36;29.10;96.80
2633;DHT22;1326;48.692;16.870;2022-07-01T09:22:04;29.10;97.10
2633;DHT22;1326;48.692;16.870;2022-07-01T09:24:40;29.10;97.70
2633;DHT22;1326;48.692;16.870;2022-07-01T09:27:14;29.20;97.40
2633;DHT22;1326;48.692;16.870;2022-07-01T09:29:47;29.30;97.50
2633;DHT22;1326;48.692;16.870;2022-07-01T09:32:17;29.40;96.90
2633;DHT22;1326;48.692;16.870;2022-07-01T09:34:49;29.50;96.80
2633;DHT22;1326;48.692;16.870;2022-07-01T09:37:23;29.80;95.70
2633;DHT22;1326;48.692;16.870;2022-07-01T09:39:55;30.00;94.80
2633;DHT22;1326;48.692;16.870;2022-07-01T09:42:22;30.00;93.90
2633;DHT22;1326;48.692;16.870;2022-07-01T09:45:01;30.00;93.20
2633;DHT22;1326;48.692;16.870;2022-07-01T09:47:34;30.10;94.50
2633;DHT22;1326;48.692;16.870;2022-07-01T09:50:04;30.20;94.20
2633;DHT22;1326;48.692;16.870;2022-07-01T09:52:32;30.20;93.90
2633;DHT22;1326;48.692;16.870;2022-07-01T09:55:00;30.20;92.70
2633;DHT22;1326;48.692;16.870;2022-07-01T09:57:28;30.00;93.50
2633;DHT22;1326;48.692;16.870;2022-07-01T09:59:56;29.90;93.60
2633;DHT22;1326;48.692;16.870;2022-07-01T10:02:23;30.00;93.00
2633;DHT22;1326;48.692;16.870;2022-07-01T10:05:05;30.00;93.30
2633;DHT22;1326;48.692;16.870;2022-07-01T10:07:55;30.30;93.60
2633;DHT22;1326;48.692;16.870;2022-07-01T10:10:41;30.20;92.60
2633;DHT22;1326;48.692;16.870;2022-07-01T10:13:08;30.20;92.90
2633;DHT22;1326;48.692;16.870;2022-07-01T10:15:37;30.30;92.10
2633;DHT22;1326;48.692;16.870;2022-07-01T10:18:06;30.30;92.30
2633;DHT22;1326;48.692;16.870;2022-07-01T10:20:36;30.40;93.20
2633;DHT22;1326;48.692;16.870;2022-07-01T10:23:06;30.60;92.40
2633;DHT22;1326;48.692;16.870;2022-07-01T10:31:04;30.80;91.10
2633;DHT22;1326;48.692;16.870;2022-07-01T10:36:17;30.60;90.60
2633;DHT22;1326;48.692;16.870;2022-07-01T10:41:39;30.70;90.70
2633;DHT22;1326;48.692;16.870;2022-07-01T10:44:10;30.90;90.60
2633;DHT22;1326;48.692;16.870;2022-07-01T10:46:49;31.10;90.90
2633;DHT22;1326;48.692;16.870;2022-07-01T10:49:22;31.20;88.70
2633;DHT22;1326;48.692;16.870;2022-07-01T10:51:57;31.20;87.70
2633;DHT22;1326;48.692;16.870;2022-07-01T10:57:21;31.30;86.40
2633;DHT22;1326;48.692;16.870;2022-07-01T10:59:56;31.30;85.60
2633;DHT22;1326;48.692;16.870;2022-07-01T11:02:27;31.10;87.10
2633;DHT22;1326;48.692;16.870;2022-07-01T11:04:57;31.20;88.20
2633;DHT22;1326;48.692;16.870;2022-07-01T11:07:27;31.40;86.90
2633;DHT22;1326;48.692;16.870;2022-07-01T11:09:56;31.60;86.00
2633;DHT22;1326;48.692;16.870;2022-07-01T11:12:26;31.40;86.20
2633;DHT22;1326;48.692;16.870;2022-07-01T11:14:55;31.30;86.20
2633;DHT22;1326;48.692;16.870;2022-07-01T11:17:26;31.20;85.30
2633;DHT22;1326;48.692;16.870;2022-07-01T11:19:56;31.30;85.40
2633;DHT22;1326;48.692;16.870;2022-07-01T11:22:26;31.40;85.70
2633;DHT22;1326;48.692;16.870;2022-07-01T11:25:00;31.50;84.80
2633;DHT22;1326;48.692;16.870;2022-07-01T11:27:29;31.80;82.20
2633;DHT22;1326;48.692;16.870;2022-07-01T11:30:05;31.90;81.80
2633;DHT22;1326;48.692;16.870;2022-07-01T11:32:36;31.90;82.00
2633;DHT22;1326;48.692;16.870;2022-07-01T11:35:05;32.00;81.40
2633;DHT22;1326;48.692;16.870;2022-07-01T11:37:51;32.00;80.20
2633;DHT22;1326;48.692;16.870;2022-07-01T11:40:36;32.00;81.30
2633;DHT22;1326;48.692;16.870;2022-07-01T11:43:22;32.20;81.40
2633;DHT22;1326;48.692;16.870;2022-07-01T11:45:46;32.40;79.20
2633;DHT22;1326;48.692;16.870;2022-07-01T11:48:35;32.40;78.40
2633;DHT22;1326;48.692;16.870;2022-07-01T11:51:01;32.70;81.10
2633;DHT22;1326;48.692;16.870;2022-07-01T11:53:29;33.10;75.70
2633;DHT22;1326;48.692;16.870;2022-07-01T11:55:57;33.40;73.50
2633;DHT22;1326;48.692;16.870;2022-07-01T12:01:30;33.70;70.70
2633;DHT22;1326;48.692;16.870;2022-07-01T12:04:00;33.80;71.90
2633;DHT22;1326;48.692;16.870;2022-07-01T12:06:29;34.20;70.00
2633;DHT22;1326;48.692;16.870;2022-07-01T12:08:58;34.50;68.10
2633;DHT22;1326;48.692;16.870;2022-07-01T12:11:27;34.60;66.80
2633;DHT22;1326;48.692;16.870;2022-07-01T12:13:56;35.00;64.30
2633;DHT22;1326;48.692;16.870;2022-07-01T12:16:24;35.00;63.50
2633;DHT22;1326;48.692;16.870;2022-07-01T12:18:57;35.20;64.40
2633;DHT22;1326;48.692;16.870;2022-07-01T12:21:23;35.50;63.30
2633;DHT22;1326;48.692;16.870;2022-07-01T12:24:06;35.90;62.40
2633;DHT22;1326;48.692;16.870;2022-07-01T12:26:45;36.20;63.40
2633;DHT22;1326;48.692;16.870;2022-07-01T12:29:05;36.20;62.40
2633;DHT22;1326;48.692;16.870;2022-07-01T12:31:34;36.30;61.00
2633;DHT22;1326;48.692;16.870;2022-07-01T12:34:02;35.90;61.50
2633;DHT22;1326;48.692;16.870;2022-07-01T12:36:30;35.70;61.10
2633;DHT22;1326;48.692;16.870;2022-07-01T12:39:03;35.70;63.20
2633;DHT22;1326;48.692;16.870;2022-07-01T12:41:35;35.70;62.20
2633;DHT22;1326;48.692;16.870;2022-07-01T12:44:19;35.70;60.20
2633;DHT22;1326;48.692;16.870;2022-07-01T12:46:36;35.70;60.00
2633;DHT22;1326;48.692;16.870;2022-07-01T12:49:04;36.00;59.80
2633;DHT22;1326;48.692;16.870;2022-07-01T12:51:32;35.40;60.40
2633;DHT22;1326;48.692;16.870;2022-07-01T12:54:01;35.40;60.40
2633;DHT22;1326;48.692;16.870;2022-07-01T12:56:29;35.10;60.70
2633;DHT22;1326;48.692;16.870;2022-07-01T12:58:57;34.60;62.30
2633;DHT22;1326;48.692;16.870;2022-07-01T13:01:25;34.50;64.50
2633;DHT22;1326;48.692;16.870;2022-07-01T13:03:54;34.60;64.20
2633;DHT22;1326;48.692;16.870;2022-07-01T13:06:22;34.40;64.80
2633;DHT22;1326;48.692;16.870;2022-07-01T13:08:49;34.10;64.10
2633;DHT22;1326;48.692;16.870;2022-07-01T13:11:17;33.90;64.70
2633;DHT22;1326;48.692;16.870;2022-07-01T13:13:45;33.70;65.30
2633;DHT22;1326;48.692;16.870;2022-07-01T13:16:12;33.50;65.30
2633;DHT22;1326;48.692;16.870;2022-07-01T13:18:40;33.40;67.20
2633;DHT22;1326;48.692;16.870;2022-07-01T13:21:08;33.40;66.80
2633;DHT22;1326;48.692;16.870;2022-07-01T13:23:35;33.30;67.50
2633;DHT22;1326;48.692;16.870;2022-07-01T13:26:03;33.30;67.40
2633;DHT22;1326;48.692;16.870;2022-07-01T13:28:30;33.20;67.60
2633;DHT22;1326;48.692;16.870;2022-07-01T13:30:58;33.20;67.90
2633;DHT22;1326;48.692;16.870;2022-07-01T13:33:25;33.20;68.50
2633;DHT22;1326;48.692;16.870;2022-07-01T13:35:53;33.20;66.70
2633;DHT22;1326;48.692;16.870;2022-07-01T13:38:21;33.10;69.20
2633;DHT22;1326;48.692;16.870;2022-07-01T13:40:48;33.20;68.20
2633;DHT22;1326;48.692;16.870;2022-07-01T13:43:16;33.30;67.80
2633;DHT22;1326;48.692;16.870;2022-07-01T13:45:44;33.30;67.20
2633;DHT22;1326;48.692;16.870;2022-07-01T13:48:12;33.20;67.70
2633;DHT22;1326;48.692;16.870;2022-07-01T13:50:39;33.10;67.80
2633;DHT22;1326;48.692;16.870;2022-07-01T13:53:07;33.00;68.20
2633;DHT22;1326;48.692;16.870;2022-07-01T13:55:34;32.90;68.10
2633;DHT22;1326;48.692;16.870;2022-07-01T13:58:02;32.80;68.90
2633;DHT22;1326;48.692;16.870;2022-07-01T14:00:30;32.90;69.80
2633;DHT22;1326;48.692;16.870;2022-07-01T14:02:58;32.90;69.20
2633;DHT22;1326;48.692;16.870;2022-07-01T14:05:25;32.80;67.90
2633;DHT22;1326;48.692;16.870;2022-07-01T14:07:53;32.80;69.20
2633;DHT22;1326;48.692;16.870;2022-07-01T14:10:20;33.00;68.20
2633;DHT22;1326;48.692;16.870;2022-07-01T14:12:48;33.00;69.10
2633;DHT22;1326;48.692;16.870;2022-07-01T14:15:16;33.20;69.10
2633;DHT22;1326;48.692;16.870;2022-07-01T14:17:43;33.10;67.50
2633;DHT22;1326;48.692;16.870;2022-07-01T14:20:12;33.00;68.10
2633;DHT22;1326;48.692;16.870;2022-07-01T14:22:39;32.90;68.70
2633;DHT22;1326;48.692;16.870;2022-07-01T14:25:07;32.70;69.30
2633;DHT22;1326;48.692;16.870;2022-07-01T14:27:35;32.70;69.60
2633;DHT22;1326;48.692;16.870;2022-07-01T14:30:04;32.70;69.90
2633;DHT22;1326;48.692;16.870;2022-07-01T14:32:34;32.70;69.10
2633;DHT22;1326;48.692;16.870;2022-07-01T14:35:02;32.80;69.20
2633;DHT22;1326;48.692;16.870;2022-07-01T14:37:30;32.80;69.10
2633;DHT22;1326;48.692;16.870;2022-07-01T14:39:57;32.80;68.70
2633;DHT22;1326;48.692;16.870;2022-07-01T14:42:27;32.70;68.50
2633;DHT22;1326;48.692;16.870;2022-07-01T14:44:56;32.80;69.40
2633;DHT22;1326;48.692;16.870;2022-07-01T14:47:24;32.80;68.40
2633;DHT22;1326;48.692;16.870;2022-07-01T14:49:51;32.90;67.50
2633;DHT22;1326;48.692;16.870;2022-07-01T14:52:21;33.10;68.50
2633;DHT22;1326;48.692;16.870;2022-07-01T14:54:51;33.20;68.00
2633;DHT22;1326;48.692;16.870;2022-07-01T14:57:19;33.20;66.60
2633;DHT22;1326;48.692;16.870;2022-07-01T14:59:47;33.10;67.60
2633;DHT22;1326;48.692;16.870;2022-07-01T15:02:15;33.10;65.60
2633;DHT22;1326;48.692;16.870;2022-07-01T15:04:43;33.10;66.00
2633;DHT22;1326;48.692;16.870;2022-07-01T15:07:13;33.00;66.10
2633;DHT22;1326;48.692;16.870;2022-07-01T15:09:41;33.00;67.30
2633;DHT22;1326;48.692;16.870;2022-07-01T15:12:10;33.00;66.60
2633;DHT22;1326;48.692;16.870;2022-07-01T15:14:37;33.30;68.00
2633;DHT22;1326;48.692;16.870;2022-07-01T15:17:05;33.30;66.30
2633;DHT22;1326;48.692;16.870;2022-07-01T15:19:32;33.30;66.00
2633;DHT22;1326;48.692;16.870;2022-07-01T15:22:00;33.30;66.00
2633;DHT22;1326;48.692;16.870;2022-07-01T15:24:27;33.30;65.50
2633;DHT22;1326;48.692;16.870;2022-07-01T15:26:55;33.30;66.60
2633;DHT22;1326;48.692;16.870;2022-07-01T15:29:23;33.30;65.50
2633;DHT22;1326;48.692;16.870;2022-07-01T15:31:50;33.30;65.60
2633;DHT22;1326;48.692;16.870;2022-07-01T15:34:18;33.20;66.60
2633;DHT22;1326;48.692;16.870;2022-07-01T15:36:47;33.00;67.70
2633;DHT22;1326;48.692;16.870;2022-07-01T15:39:15;32.90;69.10
2633;DHT22;1326;48.692;16.870;2022-07-01T15:41:44;32.70;69.10
2633;DHT22;1326;48.692;16.870;2022-07-01T15:44:13;32.60;70.20
2633;DHT22;1326;48.692;16.870;2022-07-01T15:46:40;32.50;70.20
2633;DHT22;1326;48.692;16.870;2022-07-01T15:49:08;32.50;70.60
2633;DHT22;1326;48.692;16.870;2022-07-01T15:51:37;32.50;70.80
2633;DHT22;1326;48.692;16.870;2022-07-01T15:54:05;32.70;71.10
2633;DHT22;1326;48.692;16.870;2022-07-01T15:56:33;32.70;71.50
2633;DHT22;1326;48.692;16.870;2022-07-01T15:59:02;32.80;71.50
2633;DHT22;1326;48.692;16.870;2022-07-01T16:01:29;32.90;72.40
2633;DHT22;1326;48.692;16.870;2022-07-01T16:03:57;32.90;71.40
2633;DHT22;1326;48.692;16.870;2022-07-01T16:06:24;32.90;72.20
2633;DHT22;1326;48.692;16.870;2022-07-01T16:08:56;32.90;71.80
2633;DHT22;1326;48.692;16.870;2022-07-01T16:11:26;32.80;72.00